Time;durP1;ratioP1;P1;durP2;ratioP2;P2;SDS_P1;SDS_P2;PMS_P1;PMS_P2;Temp;Humidity;BMP_temperature;BMP_pressure;BME280_temperature;BME280_humidity;BME280_pressure;Samples;Min_cycle;Max_cycle;Signal;HPM_P1;HPM_P2
2024/01/22 00:02:06;;;;;;;4.23;3.40;;;6.50;99.90;;;;;;5014362;28;20241;-72
2024/01/22 00:04:31;;;;;;;3.07;2.77;;;6.50;99.90;;;;;;5032117;28;20196;-72
2024/01/22 00:06:57;;;;;;;2.60;2.40;;;6.50;99.90;;;;;;5032556;28;20372;-72
2024/01/22 00:09:23;;;;;;;4.13;2.70;;;6.60;99.90;;;;;;5031623;28;20296;-72
2024/01/22 00:11:48;;;;;;;4.27;2.53;;;6.60;99.90;;;;;;5015298;28;20193;-72
2024/01/22 00:14:14;;;;;;;6.40;3.33;;;6.60;99.90;;;;;;5014869;28;20192;-72
2024/01/22 00:16:40;;;;;;;4.17;3.27;;;6.60;99.90;;;;;;5013898;28;20248;-72
2024/01/22 00:19:09;;;;;;;4.17;2.83;;;6.60;99.90;;;;;;5014430;28;20726;-72
2024/01/22 00:21:35;;;;;;;5.27;2.60;;;6.70;99.90;;;;;;4998363;28;20425;-72
2024/01/22 00:24:00;;;;;;;4.90;3.10;;;6.60;99.90;;;;;;5032364;28;20437;-72
2024/01/22 00:26:26;;;;;;;3.83;2.60;;;6.70;99.90;;;;;;5031884;28;20467;-72
2024/01/22 00:28:52;;;;;;;4.30;2.67;;;6.70;99.90;;;;;;5032263;28;20221;-72
2024/01/22 00:31:17;;;;;;;3.80;2.33;;;6.70;99.90;;;;;;5032211;28;20189;-72
2024/01/22 00:33:43;;;;;;;3.00;2.57;;;6.80;99.90;;;;;;5031931;28;20190;-72
2024/01/22 00:36:13;;;;;;;2.80;2.40;;;6.80;99.90;;;;;;5014096;28;20193;-72
2024/01/22 00:38:40;;;;;;;4.03;2.47;;;6.90;99.90;;;;;;5031714;28;20454;-72
2024/01/22 00:41:06;;;;;;;3.90;2.70;;;6.90;99.90;;;;;;5013714;28;20492;-72
2024/01/22 00:43:31;;;;;;;4.67;2.57;;;6.90;99.90;;;;;;5031647;28;21099;-72
2024/01/22 00:45:57;;;;;;;3.37;2.83;;;6.90;99.90;;;;;;5031636;28;20435;-72
2024/01/22 00:48:23;;;;;;;2.97;2.40;;;6.90;99.90;;;;;;5030556;28;20274;-72
2024/01/22 00:50:49;;;;;;;3.80;2.37;;;6.90;99.90;;;;;;5014600;28;20185;-72
2024/01/22 00:53:15;;;;;;;3.20;2.37;;;6.90;99.90;;;;;;5029035;28;20497;-72
2024/01/22 00:55:41;;;;;;;7.97;2.97;;;7.00;99.90;;;;;;5032510;28;20440;-72
2024/01/22 00:58:06;;;;;;;3.53;2.43;;;7.00;99.90;;;;;;5017301;28;20182;-72
2024/01/22 01:00:32;;;;;;;3.43;2.37;;;7.00;99.90;;;;;;5034877;28;20186;-72
2024/01/22 01:02:58;;;;;;;3.90;2.73;;;7.10;99.90;;;;;;5035989;28;20186;-72
2024/01/22 01:05:23;;;;;;;3.43;2.70;;;7.10;99.90;;;;;;5035185;28;20252;-72
2024/01/22 01:07:49;;;;;;;3.70;2.43;;;7.10;99.90;;;;;;5018549;28;20186;-72
2024/01/22 01:10:15;;;;;;;5.30;2.73;;;7.10;99.90;;;;;;5017798;28;20213;-72
2024/01/22 01:12:40;;;;;;;4.93;2.43;;;7.10;99.90;;;;;;5036481;28;20189;-72
2024/01/22 01:15:07;;;;;;;2.70;2.20;;;7.10;99.90;;;;;;5035147;28;20185;-72
2024/01/22 01:17:32;;;;;;;3.60;2.80;;;7.10;99.90;;;;;;5035389;28;20280;-72
2024/01/22 01:19:58;;;;;;;3.40;2.80;;;7.10;99.90;;;;;;5035927;28;20892;-72
2024/01/22 01:22:24;;;;;;;2.97;2.63;;;7.20;99.90;;;;;;5034386;28;20281;-72
2024/01/22 01:24:50;;;;;;;2.60;2.10;;;7.10;99.90;;;;;;5036014;28;20182;-72
2024/01/22 01:27:17;;;;;;;3.87;2.80;;;7.10;99.90;;;;;;5034709;28;20736;-72
2024/01/22 01:29:43;;;;;;;6.43;2.60;;;7.20;99.90;;;;;;5017896;28;20473;-72
2024/01/22 01:32:09;;;;;;;3.20;2.70;;;7.20;99.90;;;;;;5037038;28;20468;-72
2024/01/22 01:34:34;;;;;;;4.20;2.70;;;7.30;99.90;;;;;;5035124;28;20218;-72
2024/01/22 01:37:00;;;;;;;4.07;2.50;;;7.30;99.90;;;;;;5015254;28;20183;-72
2024/01/22 01:39:26;;;;;;;3.53;2.23;;;7.30;99.90;;;;;;5034316;28;20274;-71
2024/01/22 01:41:51;;;;;;;2.40;2.20;;;7.40;99.90;;;;;;5018226;28;20186;-72
2024/01/22 01:44:17;;;;;;;2.80;2.47;;;7.30;99.90;;;;;;5017555;28;20189;-72
2024/01/22 01:46:43;;;;;;;5.93;2.27;;;7.30;99.90;;;;;;5017920;28;20194;-72
2024/01/22 01:49:09;;;;;;;2.87;2.40;;;7.40;99.90;;;;;;5036422;28;20209;-72
2024/01/22 01:51:36;;;;;;;2.73;2.07;;;7.40;99.90;;;;;;5035298;28;20356;-72
2024/01/22 01:54:04;;;;;;;2.73;2.40;;;7.40;99.90;;;;;;5036534;28;20422;-72
2024/01/22 01:56:30;;;;;;;2.70;2.30;;;7.50;99.90;;;;;;5035123;28;20424;-72
2024/01/22 01:58:56;;;;;;;4.27;2.27;;;7.50;99.90;;;;;;5017913;28;20493;-72
2024/01/22 02:01:22;;;;;;;4.20;2.47;;;7.50;99.90;;;;;;5000990;28;20570;-72
2024/01/22 02:03:48;;;;;;;4.00;2.30;;;7.50;99.90;;;;;;5035847;28;20511;-72
2024/01/22 02:06:13;;;;;;;2.80;1.90;;;7.60;99.90;;;;;;5034921;28;20179;-72
2024/01/22 02:08:39;;;;;;;2.40;2.10;;;7.50;99.90;;;;;;5035560;28;20217;-72
2024/01/22 02:11:05;;;;;;;4.20;1.90;;;7.60;99.90;;;;;;5017814;28;20533;-72
2024/01/22 02:13:31;;;;;;;5.83;2.50;;;7.60;99.90;;;;;;5034249;28;20426;-72
2024/01/22 02:15:57;;;;;;;3.20;2.20;;;7.60;99.90;;;;;;5017394;28;20452;-72
2024/01/22 02:18:23;;;;;;;3.03;1.80;;;7.60;99.90;;;;;;5034927;28;20193;-72
2024/01/22 02:20:48;;;;;;;2.73;2.03;;;7.60;99.90;;;;;;5035675;28;20474;-72
2024/01/22 02:23:14;;;;;;;1.97;1.60;;;7.70;99.90;;;;;;5017180;28;20192;-72
2024/01/22 02:25:40;;;;;;;3.37;1.90;;;7.70;99.90;;;;;;5035206;28;20269;-72
2024/01/22 02:28:06;;;;;;;1.93;1.73;;;7.70;99.90;;;;;;5034874;28;20203;-72
2024/01/22 02:30:31;;;;;;;2.00;1.70;;;7.70;99.90;;;;;;5033420;28;20209;-72
2024/01/22 02:32:57;;;;;;;2.07;1.70;;;7.70;99.90;;;;;;5035223;28;20424;-72
2024/01/22 02:35:23;;;;;;;3.23;2.10;;;7.70;99.90;;;;;;5016613;28;20706;-72
2024/01/22 02:37:48;;;;;;;2.10;1.90;;;7.70;99.90;;;;;;5035260;28;20181;-72
2024/01/22 02:40:14;;;;;;;2.70;1.83;;;7.80;99.90;;;;;;5034058;28;20191;-72
2024/01/22 02:42:40;;;;;;;2.30;1.80;;;7.80;99.90;;;;;;5034432;28;20186;-72
2024/01/22 02:45:07;;;;;;;2.00;1.80;;;7.80;99.90;;;;;;5034396;28;20813;-72
2024/01/22 02:47:34;;;;;;;2.53;1.63;;;7.80;99.90;;;;;;5033744;28;20281;-72
2024/01/22 02:50:01;;;;;;;3.57;2.23;;;7.90;99.90;;;;;;5034822;28;20482;-72
2024/01/22 02:52:27;;;;;;;2.50;2.00;;;7.90;99.90;;;;;;5033341;28;20432;-72
2024/01/22 02:54:52;;;;;;;1.70;1.60;;;7.90;99.90;;;;;;5034721;28;20433;-72
2024/01/22 02:57:18;;;;;;;1.47;1.30;;;7.90;99.90;;;;;;5033525;28;20244;-72
2024/01/22 02:59:44;;;;;;;2.27;1.30;;;7.90;99.90;;;;;;5034610;28;20178;-72
2024/01/22 03:02:10;;;;;;;2.10;1.53;;;7.90;99.90;;;;;;5000055;28;20213;-72
2024/01/22 03:04:35;;;;;;;2.20;1.80;;;8.00;99.90;;;;;;5016170;28;20196;-72
2024/01/22 03:07:01;;;;;;;1.83;1.50;;;8.00;99.90;;;;;;5016320;28;20437;-72
2024/01/22 03:09:27;;;;;;;3.43;2.10;;;8.00;99.90;;;;;;5032964;28;20810;-73
2024/01/22 03:11:52;;;;;;;2.00;1.80;;;7.90;99.90;;;;;;5034256;28;20182;-72
2024/01/22 03:14:18;;;;;;;1.33;1.20;;;8.00;99.90;;;;;;5033353;28;20189;-72
2024/01/22 03:16:43;;;;;;;2.43;1.27;;;8.00;99.90;;;;;;5034268;28;20265;-72
2024/01/22 03:19:09;;;;;;;1.77;1.30;;;8.00;99.90;;;;;;5033126;28;20511;-72
2024/01/22 03:21:36;;;;;;;2.30;1.80;;;7.90;99.90;;;;;;5033529;28;20233;-72
2024/01/22 03:24:02;;;;;;;3.10;2.00;;;7.90;99.90;;;;;;5031417;28;21195;-72
2024/01/22 03:26:27;;;;;;;2.13;1.50;;;8.00;99.90;;;;;;5032788;28;20997;-72
2024/01/22 03:28:54;;;;;;;3.63;1.70;;;8.00;99.90;;;;;;5033903;28;20227;-72
2024/01/22 03:31:27;;;;;;;4.50;1.60;;;8.00;99.90;;;;;;4998758;28;20186;-72
2024/01/22 03:33:55;;;;;;;1.53;1.43;;;8.10;99.90;;;;;;4990904;28;21036;-72
2024/01/22 03:36:22;;;;;;;2.00;1.50;;;8.10;99.90;;;;;;5032696;28;20425;-72
2024/01/22 03:38:47;;;;;;;4.63;1.40;;;8.10;99.90;;;;;;5000725;28;20821;-72
2024/01/22 03:41:13;;;;;;;2.30;1.53;;;8.10;99.90;;;;;;5032280;28;20421;-72
2024/01/22 03:43:42;;;;;;;1.83;1.43;;;8.10;99.90;;;;;;5031438;28;20186;-72
2024/01/22 03:46:08;;;;;;;1.90;1.53;;;8.10;99.90;;;;;;5013262;28;20631;-72
2024/01/22 03:48:34;;;;;;;1.97;1.63;;;8.10;99.90;;;;;;5033266;28;20915;-72
2024/01/22 03:50:59;;;;;;;1.83;1.50;;;8.20;99.90;;;;;;5033378;28;20428;-72
2024/01/22 03:53:25;;;;;;;1.80;1.60;;;8.20;99.90;;;;;;5014555;28;20269;-72
2024/01/22 03:55:51;;;;;;;2.40;1.83;;;8.20;99.90;;;;;;5033475;28;20917;-72
2024/01/22 03:58:16;;;;;;;2.73;1.30;;;8.20;99.90;;;;;;5032452;28;20185;-72
2024/01/22 04:00:42;;;;;;;3.27;1.60;;;8.20;99.90;;;;;;5033860;28;20272;-72
2024/01/22 04:03:08;;;;;;;1.73;1.57;;;8.20;99.90;;;;;;5031289;28;20993;-72
2024/01/22 04:05:34;;;;;;;1.47;1.23;;;8.20;99.90;;;;;;5013439;28;20183;-72
2024/01/22 04:08:00;;;;;;;3.87;1.60;;;8.20;99.90;;;;;;4998206;28;20185;-72
2024/01/22 04:10:26;;;;;;;1.60;1.37;;;8.10;99.90;;;;;;5031896;28;20891;-72
2024/01/22 04:12:55;;;;;;;2.57;1.60;;;8.10;99.90;;;;;;5032464;28;20514;-72
2024/01/22 04:15:21;;;;;;;1.43;1.33;;;8.00;99.90;;;;;;5015397;28;20448;-72
2024/01/22 04:17:47;;;;;;;2.00;1.30;;;8.10;99.90;;;;;;5033075;28;20433;-72
2024/01/22 04:20:13;;;;;;;1.33;1.23;;;8.00;99.90;;;;;;5014998;28;20436;-72
2024/01/22 04:22:38;;;;;;;2.00;1.63;;;8.00;99.90;;;;;;5033166;28;20448;-72
2024/01/22 04:25:05;;;;;;;1.70;1.40;;;8.00;99.90;;;;;;5032369;28;20463;-72
2024/01/22 04:27:30;;;;;;;1.93;1.50;;;8.00;99.90;;;;;;5032590;28;20598;-72
2024/01/22 04:29:56;;;;;;;2.80;1.40;;;8.00;99.90;;;;;;5035168;28;20476;-72
2024/01/22 04:32:22;;;;;;;2.70;1.20;;;8.00;99.90;;;;;;5002764;28;20182;-72
2024/01/22 04:34:48;;;;;;;1.87;1.20;;;8.00;99.90;;;;;;5036415;28;20702;-72
2024/01/22 04:37:14;;;;;;;1.90;1.23;;;8.00;99.90;;;;;;5018248;28;20182;-72
2024/01/22 04:39:40;;;;;;;2.30;1.50;;;8.00;99.90;;;;;;5037008;28;20428;-72
2024/01/22 04:42:06;;;;;;;2.10;1.30;;;8.00;99.90;;;;;;5036062;28;20476;-72
2024/01/22 04:44:32;;;;;;;1.90;1.33;;;8.00;99.90;;;;;;5037241;28;20853;-72
2024/01/22 04:46:58;;;;;;;2.83;1.40;;;8.00;99.90;;;;;;5018615;28;20462;-72
2024/01/22 04:49:24;;;;;;;4.07;1.70;;;8.00;99.90;;;;;;5019247;28;20995;-72
2024/01/22 04:51:50;;;;;;;2.17;1.77;;;8.00;99.90;;;;;;5036552;28;20424;-72
2024/01/22 04:54:15;;;;;;;3.23;1.20;;;8.00;99.90;;;;;;5035649;28;20971;-72
2024/01/22 04:56:43;;;;;;;1.40;1.30;;;8.00;99.90;;;;;;5018846;28;20212;-72
2024/01/22 04:59:09;;;;;;;2.20;1.27;;;8.00;99.90;;;;;;5035219;28;20432;-72
2024/01/22 05:01:35;;;;;;;1.83;1.23;;;8.00;99.90;;;;;;5036586;28;20420;-72
2024/01/22 05:04:01;;;;;;;1.67;1.43;;;8.00;99.90;;;;;;5036233;28;20186;-72
2024/01/22 05:06:27;;;;;;;1.40;1.10;;;8.00;99.90;;;;;;5036271;28;20417;-72
2024/01/22 05:08:53;;;;;;;1.77;1.30;;;8.00;99.90;;;;;;5035655;28;20994;-72
2024/01/22 05:11:18;;;;;;;1.40;1.27;;;8.00;99.90;;;;;;5034858;28;20217;-72
2024/01/22 05:13:52;;;;;;;1.50;1.20;;;8.00;99.90;;;;;;5018599;28;20273;-72
2024/01/22 05:16:18;;;;;;;1.90;1.50;;;8.00;99.90;;;;;;5034690;28;20213;-72
2024/01/22 05:18:48;;;;;;;1.07;0.97;;;8.00;99.90;;;;;;5035533;28;20444;-72
2024/01/22 05:21:14;;;;;;;2.50;1.50;;;8.00;99.90;;;;;;5034297;28;20599;-72
2024/01/22 05:23:41;;;;;;;1.40;1.30;;;8.00;99.90;;;;;;5032703;28;21160;-72
2024/01/22 05:26:07;;;;;;;1.40;1.30;;;8.00;99.90;;;;;;5033172;28;20797;-72
2024/01/22 05:28:33;;;;;;;1.03;0.93;;;8.00;99.90;;;;;;5034841;28;20439;-72
2024/01/22 05:31:00;;;;;;;4.00;1.30;;;8.00;99.90;;;;;;5034524;28;20481;-72
2024/01/22 05:33:26;;;;;;;1.57;1.27;;;8.00;99.90;;;;;;5033767;28;20510;-72
2024/01/22 05:35:51;;;;;;;1.70;1.30;;;8.00;99.90;;;;;;5035524;28;20429;-73
2024/01/22 05:38:17;;;;;;;3.37;1.90;;;8.00;99.90;;;;;;5034182;28;20425;-72
2024/01/22 05:40:43;;;;;;;1.10;1.00;;;8.00;99.90;;;;;;5032991;28;20881;-72
2024/01/22 05:43:09;;;;;;;1.20;1.10;;;8.00;99.90;;;;;;5032470;28;20278;-72
2024/01/22 05:45:34;;;;;;;1.30;1.20;;;8.00;99.90;;;;;;5033618;28;20182;-72
2024/01/22 05:48:00;;;;;;;1.10;1.00;;;8.10;99.90;;;;;;5033947;28;20190;-72
2024/01/22 05:50:25;;;;;;;1.57;1.03;;;8.10;99.90;;;;;;5033796;28;20222;-72
2024/01/22 05:52:51;;;;;;;2.80;1.37;;;8.10;99.90;;;;;;5015210;28;20240;-72
2024/01/22 05:55:17;;;;;;;1.30;1.20;;;8.10;99.90;;;;;;5030231;28;20317;-72
2024/01/22 05:57:42;;;;;;;3.97;1.43;;;8.10;99.90;;;;;;5014354;28;20190;-72
2024/01/22 06:00:09;;;;;;;1.80;1.33;;;8.10;99.90;;;;;;5031662;28;20189;-72
2024/01/22 06:02:42;;;;;;;1.93;1.17;;;8.10;99.90;;;;;;5035174;28;20517;-72
2024/01/22 06:05:11;;;;;;;1.00;0.90;;;8.10;99.90;;;;;;5033562;28;20456;-72
2024/01/22 06:07:38;;;;;;;1.30;1.20;;;8.10;99.90;;;;;;5034766;28;20432;-72
2024/01/22 06:10:07;;;;;;;2.33;1.20;;;8.10;99.90;;;;;;5032775;28;21045;-72
2024/01/22 06:12:34;;;;;;;2.73;1.67;;;8.10;99.90;;;;;;5034856;28;20459;-72
2024/01/22 06:15:00;;;;;;;4.10;1.30;;;8.20;99.90;;;;;;5033381;28;20493;-72
2024/01/22 06:17:31;;;;;;;2.10;1.53;;;8.20;99.90;;;;;;5034101;28;20421;-72
2024/01/22 06:20:00;;;;;;;1.93;1.20;;;8.20;99.90;;;;;;5034456;28;20429;-72
2024/01/22 06:22:26;;;;;;;1.40;1.20;;;8.20;99.90;;;;;;5033206;28;20434;-72
2024/01/22 06:24:52;;;;;;;1.83;1.10;;;8.20;99.90;;;;;;5016368;28;20429;-72
2024/01/22 06:27:18;;;;;;;1.30;1.03;;;8.20;99.90;;;;;;5032588;28;20435;-72
2024/01/22 06:29:43;;;;;;;1.10;1.00;;;8.20;99.90;;;;;;5034766;28;20300;-72
2024/01/22 06:32:09;;;;;;;1.40;1.07;;;8.20;99.90;;;;;;5029994;28;20614;-72
2024/01/22 06:34:38;;;;;;;2.17;1.40;;;8.20;99.90;;;;;;5032987;28;20182;-72
2024/01/22 06:37:04;;;;;;;1.87;1.00;;;8.20;99.90;;;;;;5030587;28;20444;-72
2024/01/22 06:39:30;;;;;;;1.13;1.03;;;8.30;99.90;;;;;;5032712;28;20437;-72
2024/01/22 06:41:56;;;;;;;1.43;1.03;;;8.30;99.90;;;;;;5014787;28;20437;-72
2024/01/22 06:44:22;;;;;;;2.10;1.10;;;8.30;99.90;;;;;;5033085;28;20813;-73
2024/01/22 06:46:47;;;;;;;2.03;1.00;;;8.30;99.90;;;;;;5033538;28;20182;-73
2024/01/22 06:49:13;;;;;;;2.40;1.20;;;8.40;99.90;;;;;;5033062;28;20217;-72
2024/01/22 06:51:39;;;;;;;1.33;0.90;;;8.40;99.90;;;;;;5033844;28;20182;-72
2024/01/22 06:54:04;;;;;;;1.43;0.93;;;8.40;99.90;;;;;;5031028;28;20199;-72
2024/01/22 06:56:31;;;;;;;3.90;1.00;;;8.40;99.90;;;;;;5032608;28;20194;-72
2024/01/22 06:58:57;;;;;;;0.97;0.87;;;8.40;99.90;;;;;;5015420;28;20204;-72
2024/01/22 07:01:22;;;;;;;1.27;1.00;;;8.40;99.90;;;;;;5031243;28;20453;-72
2024/01/22 07:03:48;;;;;;;1.33;0.90;;;8.40;99.90;;;;;;5031603;28;20444;-72
2024/01/22 07:06:14;;;;;;;1.53;0.93;;;8.40;99.90;;;;;;5031957;28;20273;-72
2024/01/22 07:08:40;;;;;;;1.20;1.03;;;8.50;99.90;;;;;;5032361;28;20194;-72
2024/01/22 07:11:06;;;;;;;1.43;1.20;;;8.40;99.90;;;;;;5014836;28;20186;-75
2024/01/22 07:13:32;;;;;;;1.67;1.10;;;8.50;99.90;;;;;;5033496;28;20190;-74
2024/01/22 07:16:01;;;;;;;1.20;1.10;;;8.50;99.90;;;;;;5029352;28;20462;-73
2024/01/22 07:18:27;;;;;;;0.83;0.83;;;8.50;99.90;;;;;;5030048;28;20429;-73
2024/01/22 07:20:53;;;;;;;1.20;0.90;;;8.50;99.90;;;;;;5031634;28;20437;-73
2024/01/22 07:23:19;;;;;;;1.13;0.77;;;8.50;99.90;;;;;;5012230;28;20545;-73
2024/01/22 07:25:45;;;;;;;2.13;1.20;;;8.60;99.90;;;;;;5027447;28;21000;-72
2024/01/22 07:28:11;;;;;;;2.23;1.10;;;8.60;99.90;;;;;;5013274;28;20441;-75
2024/01/22 07:30:37;;;;;;;1.10;1.00;;;8.60;99.90;;;;;;5013486;28;20587;-72
2024/01/22 07:33:03;;;;;;;1.30;0.93;;;8.60;99.90;;;;;;5013031;28;20284;-73
2024/01/22 07:35:32;;;;;;;1.27;0.93;;;8.60;99.90;;;;;;5015261;28;20519;-72
2024/01/22 07:37:58;;;;;;;1.10;0.80;;;8.70;99.90;;;;;;5031581;28;20925;-75
2024/01/22 07:40:24;;;;;;;1.90;1.07;;;8.70;99.90;;;;;;5031493;28;20436;-72
2024/01/22 07:42:50;;;;;;;0.97;0.80;;;8.70;99.90;;;;;;5031919;28;20722;-74
2024/01/22 07:45:16;;;;;;;2.50;1.37;;;8.70;99.90;;;;;;5014179;28;20185;-74
2024/01/22 07:47:43;;;;;;;1.00;0.90;;;8.80;99.90;;;;;;5014208;28;20209;-72
2024/01/22 07:50:13;;;;;;;1.17;0.90;;;8.80;99.90;;;;;;5014292;28;20498;-70
2024/01/22 07:52:39;;;;;;;2.47;1.10;;;8.90;99.90;;;;;;5032338;28;20432;-72
2024/01/22 07:55:07;;;;;;;1.17;0.90;;;8.90;99.90;;;;;;5031840;28;20484;-75
2024/01/22 07:57:33;;;;;;;1.43;1.23;;;9.00;99.90;;;;;;5015289;28;20494;-71
2024/01/22 07:59:58;;;;;;;1.23;1.10;;;9.10;99.90;;;;;;5032247;28;20931;-71
2024/01/22 08:02:24;;;;;;;1.90;1.10;;;9.20;99.90;;;;;;5014741;28;20455;-71
2024/01/22 08:04:50;;;;;;;1.93;0.87;;;9.20;99.90;;;;;;5016674;28;20231;-72
2024/01/22 08:07:19;;;;;;;2.00;1.20;;;9.30;99.90;;;;;;5036220;28;20301;-73
2024/01/22 08:09:46;;;;;;;0.90;0.80;;;9.30;99.90;;;;;;4987872;28;20471;-69
2024/01/22 08:12:12;;;;;;;3.73;0.83;;;9.40;99.90;;;;;;5035898;28;20543;-74
2024/01/22 08:14:37;;;;;;;1.10;1.00;;;9.40;99.90;;;;;;5037121;28;20523;-72
2024/01/22 08:17:03;;;;;;;1.50;0.97;;;9.50;99.90;;;;;;5017723;28;20688;-71
2024/01/22 08:19:30;;;;;;;1.37;0.83;;;9.60;99.90;;;;;;5014874;28;20189;-73
2024/01/22 08:21:56;;;;;;;0.80;0.70;;;9.60;99.90;;;;;;5034889;28;20612;-74
2024/01/22 08:24:23;;;;;;;0.97;0.87;;;9.60;99.90;;;;;;5036201;28;20656;-73
2024/01/22 08:26:49;;;;;;;1.30;0.90;;;9.60;99.90;;;;;;5017998;28;20988;-73
2024/01/22 08:29:15;;;;;;;1.67;1.00;;;9.70;99.90;;;;;;5019720;28;20471;-72
2024/01/22 08:31:42;;;;;;;0.90;0.70;;;9.70;99.90;;;;;;5036361;28;20945;-73
2024/01/22 08:34:07;;;;;;;1.10;0.80;;;9.80;99.90;;;;;;5035094;28;20190;-73
2024/01/22 08:36:33;;;;;;;1.47;0.80;;;9.80;99.90;;;;;;5019908;28;20444;-74
2024/01/22 08:38:59;;;;;;;2.30;0.90;;;9.90;99.90;;;;;;5018502;28;20194;-74
2024/01/22 08:41:27;;;;;;;1.00;0.70;;;9.80;99.90;;;;;;5035812;28;20185;-73
2024/01/22 08:44:00;;;;;;;0.80;0.80;;;9.90;99.90;;;;;;5034882;28;20190;-70
2024/01/22 08:46:26;;;;;;;0.60;0.60;;;9.90;99.90;;;;;;5003236;28;20531;-75
2024/01/22 08:48:52;;;;;;;1.20;1.07;;;9.90;99.90;;;;;;4987753;28;21024;-73
2024/01/22 08:51:17;;;;;;;1.10;1.00;;;9.90;99.90;;;;;;5035023;28;20421;-73
2024/01/22 08:53:43;;;;;;;1.23;0.90;;;9.90;99.90;;;;;;5035231;28;20185;-74
2024/01/22 08:56:09;;;;;;;1.20;0.87;;;9.90;99.90;;;;;;5016899;28;20200;-74
2024/01/22 08:58:34;;;;;;;1.47;1.07;;;9.90;99.90;;;;;;5018014;28;20232;-72
2024/01/22 09:01:04;;;;;;;1.47;0.83;;;9.90;99.90;;;;;;5035167;28;20251;-72
2024/01/22 09:03:31;;;;;;;3.23;0.90;;;9.90;99.90;;;;;;5035809;28;20190;-75
2024/01/22 09:05:56;;;;;;;2.47;0.80;;;10.00;99.90;;;;;;5034807;28;20429;-73
2024/01/22 09:08:22;;;;;;;1.43;0.97;;;10.00;99.90;;;;;;5035312;28;20433;-70
2024/01/22 09:10:48;;;;;;;2.00;1.03;;;10.00;99.90;;;;;;5034670;28;20267;-73
2024/01/22 09:13:13;;;;;;;0.90;0.70;;;10.10;99.90;;;;;;5017847;28;20669;-73
2024/01/22 09:15:39;;;;;;;2.50;0.90;;;10.10;99.90;;;;;;5015822;28;20194;-71
2024/01/22 09:18:05;;;;;;;3.27;0.90;;;10.10;99.90;;;;;;5016831;28;20199;-73
2024/01/22 09:20:31;;;;;;;2.20;0.90;;;10.10;99.90;;;;;;5035292;28;20194;-75
2024/01/22 09:22:57;;;;;;;1.37;0.80;;;10.10;99.90;;;;;;5035323;28;20835;-75
2024/01/22 09:25:22;;;;;;;1.83;0.90;;;10.10;99.90;;;;;;5034427;28;20429;-72
2024/01/22 09:27:49;;;;;;;1.77;1.10;;;10.10;99.90;;;;;;5034515;28;20178;-73
2024/01/22 09:30:15;;;;;;;2.07;1.00;;;10.20;99.90;;;;;;5016856;28;20270;-73
2024/01/22 09:32:41;;;;;;;1.93;1.00;;;10.20;99.90;;;;;;5034452;28;20424;-71
2024/01/22 09:35:07;;;;;;;2.00;1.17;;;10.20;99.90;;;;;;5016328;28;20946;-75
2024/01/22 09:37:34;;;;;;;1.20;0.80;;;10.20;99.90;;;;;;5035469;28;20252;-73
2024/01/22 09:40:00;;;;;;;1.87;0.90;;;10.20;99.90;;;;;;5016363;28;21058;-75
2024/01/22 09:42:28;;;;;;;2.60;1.30;;;10.20;99.90;;;;;;5017478;28;20456;-73
2024/01/22 09:44:54;;;;;;;5.03;1.37;;;10.20;99.90;;;;;;5035042;28;20431;-74
2024/01/22 09:47:20;;;;;;;2.90;1.20;;;10.20;99.90;;;;;;5033885;28;20429;-71
2024/01/22 09:49:49;;;;;;;4.67;1.27;;;10.20;99.90;;;;;;5015749;28;20259;-73
2024/01/22 09:52:17;;;;;;;3.87;1.37;;;10.20;99.90;;;;;;5002578;28;20436;-73
2024/01/22 09:54:44;;;;;;;4.27;1.30;;;10.30;99.90;;;;;;5034398;28;20458;-74
2024/01/22 09:57:17;;;;;;;2.57;1.60;;;10.30;99.90;;;;;;5032896;28;20437;-74
2024/01/22 09:59:44;;;;;;;4.67;1.57;;;10.30;99.90;;;;;;5033840;28;20437;-75
2024/01/22 10:02:16;;;;;;;6.20;1.17;;;10.40;99.90;;;;;;5033310;28;20435;-71
2024/01/22 10:04:43;;;;;;;4.10;1.07;;;10.40;99.90;;;;;;5001424;28;20429;-74
2024/01/22 10:07:13;;;;;;;3.50;1.30;;;10.40;99.90;;;;;;5033067;28;20429;-70
2024/01/22 10:09:38;;;;;;;5.67;1.67;;;10.40;99.90;;;;;;5016223;28;20468;-73
2024/01/22 10:12:05;;;;;;;3.23;1.80;;;10.40;99.90;;;;;;5034336;28;20432;-75
2024/01/22 10:14:37;;;;;;;2.90;1.50;;;10.40;99.90;;;;;;5034767;28;20545;-76
2024/01/22 10:17:32;;;;;;;2.80;1.30;;;10.50;99.90;;;;;;5033983;28;20440;-75
2024/01/22 10:20:07;;;;;;;4.57;1.60;;;10.50;99.90;;;;;;4993258;28;20426;-72
2024/01/22 10:22:33;;;;;;;4.30;1.53;;;10.60;99.90;;;;;;5034404;28;20497;-72
2024/01/22 10:25:02;;;;;;;4.97;1.40;;;10.60;99.90;;;;;;5016200;28;20480;-75
2024/01/22 10:27:28;;;;;;;8.70;1.83;;;10.60;99.90;;;;;;5034228;28;20572;-71
2024/01/22 10:30:09;;;;;;;2.20;1.03;;;10.60;99.90;;;;;;5000783;28;20479;-72
2024/01/22 10:32:35;;;;;;;3.40;1.30;;;10.60;99.90;;;;;;5035135;28;20206;-74
2024/01/22 10:35:01;;;;;;;6.07;1.90;;;10.60;99.90;;;;;;5032628;28;20788;-71
2024/01/22 10:37:27;;;;;;;6.90;1.70;;;10.70;99.90;;;;;;5016662;28;20426;-73
2024/01/22 10:40:01;;;;;;;3.73;1.33;;;10.70;99.90;;;;;;5033941;28;20186;-74
2024/01/22 10:42:27;;;;;;;2.00;1.43;;;10.70;99.90;;;;;;5033927;28;20994;-74
2024/01/22 10:44:55;;;;;;;5.40;1.60;;;10.70;99.90;;;;;;5033411;28;20432;-73
2024/01/22 10:47:21;;;;;;;6.40;2.00;;;10.70;99.90;;;;;;5033293;28;20189;-71
2024/01/22 10:49:47;;;;;;;5.00;1.53;;;10.70;99.90;;;;;;5034351;28;20496;-71
2024/01/22 10:52:13;;;;;;;7.40;1.87;;;10.80;99.90;;;;;;5016202;28;20472;-72
2024/01/22 10:54:39;;;;;;;4.30;1.73;;;10.70;99.90;;;;;;5016191;28;20193;-72
2024/01/22 10:57:14;;;;;;;5.33;1.37;;;10.80;99.90;;;;;;5033986;28;20186;-71
2024/01/22 10:59:48;;;;;;;5.20;1.77;;;10.80;99.90;;;;;;5015875;28;20424;-74
2024/01/22 11:02:20;;;;;;;5.80;1.43;;;10.80;99.90;;;;;;5033563;28;21069;-72
2024/01/22 11:04:47;;;;;;;7.20;1.97;;;10.80;99.90;;;;;;5033036;28;20484;-74
2024/01/22 11:07:14;;;;;;;5.23;1.87;;;10.80;99.90;;;;;;5033145;28;21096;-71
2024/01/22 11:09:40;;;;;;;1.50;1.07;;;10.80;99.90;;;;;;5015657;28;20552;-70
2024/01/22 11:12:11;;;;;;;4.53;1.30;;;10.90;99.90;;;;;;5032898;28;20947;-72
2024/01/22 11:14:38;;;;;;;6.67;1.60;;;10.90;99.90;;;;;;5033053;28;20440;-75
2024/01/22 11:17:09;;;;;;;3.53;1.47;;;10.90;99.90;;;;;;5032698;28;21143;-71
2024/01/22 11:19:36;;;;;;;1.93;1.30;;;11.00;99.90;;;;;;4999496;28;20445;-72
2024/01/22 11:22:20;;;;;;;3.70;1.47;;;11.00;99.90;;;;;;5032027;28;20436;-74
2024/01/22 11:25:03;;;;;;;3.70;1.33;;;11.00;99.90;;;;;;5015368;28;20471;-73
2024/01/22 11:27:42;;;;;;;5.90;1.53;;;11.00;99.90;;;;;;5033498;28;20421;-75
2024/01/22 11:30:20;;;;;;;2.53;1.00;;;11.00;99.90;;;;;;5033582;28;20480;-71
2024/01/22 11:32:46;;;;;;;3.93;1.17;;;11.00;99.90;;;;;;5032837;28;20436;-73
2024/01/22 11:35:12;;;;;;;2.70;1.13;;;11.10;99.90;;;;;;4999097;28;20425;-73
2024/01/22 11:37:38;;;;;;;4.20;1.37;;;11.10;99.90;;;;;;5015217;28;20183;-72
2024/01/22 11:40:08;;;;;;;6.33;1.13;;;11.10;99.90;;;;;;5014535;28;20450;-70
2024/01/22 11:42:34;;;;;;;1.67;0.90;;;11.10;99.90;;;;;;5014580;28;21173;-70
2024/01/22 11:45:14;;;;;;;6.47;3.10;;;11.10;99.90;;;;;;4998772;28;20427;-71
2024/01/22 11:47:41;;;;;;;11.07;5.80;;;11.10;99.90;;;;;;5016722;28;20744;-73
2024/01/22 11:50:08;;;;;;;6.40;2.87;;;11.10;99.90;;;;;;4996863;28;20473;-73
2024/01/22 11:52:37;;;;;;;3.00;1.63;;;11.00;99.90;;;;;;5031035;28;20432;-75
2024/01/22 11:55:04;;;;;;;2.50;1.63;;;10.90;99.90;;;;;;5031822;28;20490;-71
2024/01/22 11:57:32;;;;;;;2.80;1.23;;;11.00;99.90;;;;;;5032861;28;20983;-73
2024/01/22 12:00:05;;;;;;;5.83;2.37;;;11.00;99.90;;;;;;5032483;28;20437;-73
2024/01/22 12:02:34;;;;;;;3.67;1.50;;;10.90;99.90;;;;;;5032421;28;20475;-73
2024/01/22 12:05:06;;;;;;;3.83;1.17;;;10.90;99.90;;;;;;5014571;28;20475;-71
2024/01/22 12:07:35;;;;;;;2.57;1.43;;;10.90;99.90;;;;;;5016331;28;20448;-72
2024/01/22 12:10:04;;;;;;;5.90;2.47;;;10.90;99.90;;;;;;5014929;28;20531;-74
2024/01/22 12:12:30;;;;;;;4.90;2.70;;;10.90;99.90;;;;;;5015022;28;20444;-71
2024/01/22 12:14:58;;;;;;;4.40;1.90;;;10.90;99.90;;;;;;4983070;28;20486;-74
2024/01/22 12:17:24;;;;;;;2.47;1.20;;;10.90;99.90;;;;;;5030884;28;20440;-73
2024/01/22 12:19:54;;;;;;;5.23;2.07;;;10.80;99.90;;;;;;5014285;28;20948;-74
2024/01/22 12:22:22;;;;;;;3.30;1.60;;;10.80;99.90;;;;;;5031767;28;20443;-74
2024/01/22 12:25:07;;;;;;;5.07;1.50;;;10.80;99.90;;;;;;5029037;28;20429;-76
2024/01/22 12:27:33;;;;;;;2.53;1.40;;;10.60;99.90;;;;;;5032532;28;20470;-73
2024/01/22 12:30:01;;;;;;;4.80;1.70;;;10.60;99.90;;;;;;5015134;28;20615;-71
2024/01/22 12:32:26;;;;;;;7.20;2.40;;;10.50;99.90;;;;;;5033197;28;20432;-72
2024/01/22 12:34:56;;;;;;;6.70;1.70;;;10.30;99.90;;;;;;5014309;28;20466;-71
2024/01/22 12:37:23;;;;;;;9.10;2.63;;;10.20;99.90;;;;;;5031772;28;20192;-73
2024/01/22 12:39:49;;;;;;;10.83;2.40;;;10.10;99.90;;;;;;5014747;28;20440;-73
2024/01/22 12:42:18;;;;;;;7.50;2.57;;;10.00;99.90;;;;;;5014706;28;20439;-75
2024/01/22 12:44:58;;;;;;;9.30;2.50;;;9.90;99.90;;;;;;5000073;28;20804;-74
2024/01/22 12:47:25;;;;;;;10.43;2.73;;;9.80;99.90;;;;;;5032461;28;20476;-75
2024/01/22 12:49:52;;;;;;;7.03;2.63;;;9.70;99.90;;;;;;5015106;28;20472;-74
2024/01/22 12:52:19;;;;;;;15.10;3.17;;;9.70;99.90;;;;;;5034721;28;20437;-74